sensor_id;sensor_type;location;lat;lon;timestamp;pressure;altitude;pressure_sealevel;temperature;humidity
6942;BME280;3510;43.200;27.920;2022-07-10T00:00:09;100353.28;;;28.92;37.21
6942;BME280;3510;43.200;27.920;2022-07-10T00:02:37;100355.84;;;28.77;37.46
6942;BME280;3510;43.200;27.920;2022-07-10T00:05:04;100327.34;;;28.77;37.08
6942;BME280;3510;43.200;27.920;2022-07-10T00:07:32;100340.34;;;28.97;36.81
6942;BME280;3510;43.200;27.920;2022-07-10T00:10:00;100334.28;;;28.84;36.70
6942;BME280;3510;43.200;27.920;2022-07-10T00:12:27;100347.25;;;28.90;36.95
6942;BME280;3510;43.200;27.920;2022-07-10T00:14:54;100367.84;;;28.42;37.20
6942;BME280;3510;43.200;27.920;2022-07-10T00:17:21;100321.97;;;28.20;37.76
6942;BME280;3510;43.200;27.920;2022-07-10T00:19:48;100322.09;;;28.51;37.18
6942;BME280;3510;43.200;27.920;2022-07-10T00:22:15;100364.41;;;28.54;36.73
6942;BME280;3510;43.200;27.920;2022-07-10T00:24:42;100318.72;;;28.72;36.71
6942;BME280;3510;43.200;27.920;2022-07-10T00:27:10;100313.63;;;29.01;36.18
6942;BME280;3510;43.200;27.920;2022-07-10T00:29:37;100336.84;;;28.81;36.59
6942;BME280;3510;43.200;27.920;2022-07-10T00:32:05;100310.16;;;29.00;36.53
6942;BME280;3510;43.200;27.920;2022-07-10T00:34:32;100306.63;;;28.67;37.13
6942;BME280;3510;43.200;27.920;2022-07-10T00:36:59;100302.38;;;29.25;36.21
6942;BME280;3510;43.200;27.920;2022-07-10T00:39:26;100319.59;;;28.84;36.75
6942;BME280;3510;43.200;27.920;2022-07-10T00:41:53;100302.25;;;28.54;37.65
6942;BME280;3510;43.200;27.920;2022-07-10T00:44:21;100313.53;;;28.64;37.47
6942;BME280;3510;43.200;27.920;2022-07-10T00:46:48;100326.47;;;28.68;37.34
6942;BME280;3510;43.200;27.920;2022-07-10T00:49:15;100318.75;;;28.82;37.31
6942;BME280;3510;43.200;27.920;2022-07-10T00:51:42;100307.59;;;29.18;36.65
6942;BME280;3510;43.200;27.920;2022-07-10T00:54:10;100326.50;;;28.84;37.08
6942;BME280;3510;43.200;27.920;2022-07-10T00:56:37;100322.13;;;28.57;37.44
6942;BME280;3510;43.200;27.920;2022-07-10T00:59:04;100317.84;;;28.68;37.06
6942;BME280;3510;43.200;27.920;2022-07-10T01:01:34;100307.50;;;28.88;36.94
6942;BME280;3510;43.200;27.920;2022-07-10T01:04:01;100299.78;;;29.06;36.60
6942;BME280;3510;43.200;27.920;2022-07-10T01:06:28;100305.72;;;28.58;37.20
6942;BME280;3510;43.200;27.920;2022-07-10T01:08:55;100298.00;;;28.72;36.72
6942;BME280;3510;43.200;27.920;2022-07-10T01:11:22;100285.94;;;28.95;36.23
6942;BME280;3510;43.200;27.920;2022-07-10T01:13:50;100297.06;;;28.42;37.23
6942;BME280;3510;43.200;27.920;2022-07-10T01:16:17;100281.59;;;28.86;36.88
6942;BME280;3510;43.200;27.920;2022-07-10T01:18:45;100284.19;;;28.73;37.06
6942;BME280;3510;43.200;27.920;2022-07-10T01:21:31;100291.13;;;29.00;37.05
6942;BME280;3510;43.200;27.920;2022-07-10T01:23:59;100279.91;;;29.02;36.99
6942;BME280;3510;43.200;27.920;2022-07-10T01:26:29;100295.41;;;28.84;37.45
6942;BME280;3510;43.200;27.920;2022-07-10T01:28:57;100278.09;;;28.46;38.35
6942;BME280;3510;43.200;27.920;2022-07-10T01:31:25;100298.03;;;28.82;37.83
6942;BME280;3510;43.200;27.920;2022-07-10T01:33:53;100288.44;;;28.43;38.73
6942;BME280;3510;43.200;27.920;2022-07-10T01:36:20;100297.13;;;28.76;38.01
6942;BME280;3510;43.200;27.920;2022-07-10T01:38:50;100298.88;;;28.87;38.03
6942;BME280;3510;43.200;27.920;2022-07-10T01:41:17;100296.31;;;29.35;36.96
6942;BME280;3510;43.200;27.920;2022-07-10T01:43:45;100303.03;;;30.25;35.67
6942;BME280;3510;43.200;27.920;2022-07-10T01:46:14;100298.94;;;29.23;37.77
6942;BME280;3510;43.200;27.920;2022-07-10T01:48:42;100315.13;;;28.31;39.72
6942;BME280;3510;43.200;27.920;2022-07-10T01:51:10;100305.81;;;29.40;37.98
6942;BME280;3510;43.200;27.920;2022-07-10T01:53:38;100320.41;;;28.60;39.18
6942;BME280;3510;43.200;27.920;2022-07-10T01:56:08;100316.69;;;27.97;40.65
6942;BME280;3510;43.200;27.920;2022-07-10T01:58:35;100309.88;;;28.16;40.73
6942;BME280;3510;43.200;27.920;2022-07-10T02:01:03;100314.09;;;27.98;40.79
6942;BME280;3510;43.200;27.920;2022-07-10T02:03:30;100317.72;;;28.30;39.76
6942;BME280;3510;43.200;27.920;2022-07-10T02:06:14;100315.84;;;27.98;40.36
6942;BME280;3510;43.200;27.920;2022-07-10T02:08:41;100334.28;;;28.90;39.05
6942;BME280;3510;43.200;27.920;2022-07-10T02:11:10;100330.88;;;29.35;38.37
6942;BME280;3510;43.200;27.920;2022-07-10T02:13:37;100327.38;;;28.84;38.85
6942;BME280;3510;43.200;27.920;2022-07-10T02:16:05;100341.22;;;28.97;38.84
6942;BME280;3510;43.200;27.920;2022-07-10T02:18:32;100338.69;;;29.34;38.24
6942;BME280;3510;43.200;27.920;2022-07-10T02:20:59;100344.63;;;28.88;38.69
6942;BME280;3510;43.200;27.920;2022-07-10T02:23:26;100343.84;;;29.00;38.50
6942;BME280;3510;43.200;27.920;2022-07-10T02:25:53;100339.25;;;28.27;40.09
6942;BME280;3510;43.200;27.920;2022-07-10T02:28:22;100345.88;;;27.74;41.20
6942;BME280;3510;43.200;27.920;2022-07-10T02:30:49;100357.97;;;27.79;41.04
6942;BME280;3510;43.200;27.920;2022-07-10T02:33:16;100351.13;;;27.88;40.48
6942;BME280;3510;43.200;27.920;2022-07-10T02:35:43;100360.97;;;28.57;39.49
6942;BME280;3510;43.200;27.920;2022-07-10T02:38:10;100379.06;;;28.43;39.39
6942;BME280;3510;43.200;27.920;2022-07-10T02:40:36;100374.50;;;28.02;40.36
6942;BME280;3510;43.200;27.920;2022-07-10T02:43:03;100373.56;;;27.86;40.19
6942;BME280;3510;43.200;27.920;2022-07-10T02:45:39;100376.28;;;28.09;39.88
6942;BME280;3510;43.200;27.920;2022-07-10T02:48:06;100378.13;;;28.30;39.12
6942;BME280;3510;43.200;27.920;2022-07-10T02:50:33;100380.81;;;28.50;38.42
6942;BME280;3510;43.200;27.920;2022-07-10T02:53:00;100398.66;;;28.03;39.29
6942;BME280;3510;43.200;27.920;2022-07-10T02:55:28;100393.84;;;28.73;38.03
6942;BME280;3510;43.200;27.920;2022-07-10T02:57:57;100394.59;;;28.43;38.69
6942;BME280;3510;43.200;27.920;2022-07-10T03:00:24;100382.69;;;27.47;40.19
6942;BME280;3510;43.200;27.920;2022-07-10T03:02:52;100383.06;;;27.92;39.42
6942;BME280;3510;43.200;27.920;2022-07-10T03:05:19;100391.81;;;28.11;39.31
6942;BME280;3510;43.200;27.920;2022-07-10T03:07:46;100388.06;;;27.70;39.81
6942;BME280;3510;43.200;27.920;2022-07-10T03:10:13;100383.22;;;28.19;38.89
6942;BME280;3510;43.200;27.920;2022-07-10T03:12:40;100393.69;;;28.39;37.80
6942;BME280;3510;43.200;27.920;2022-07-10T03:15:15;100387.47;;;28.05;38.71
6942;BME280;3510;43.200;27.920;2022-07-10T03:17:41;100399.81;;;27.30;39.77
6942;BME280;3510;43.200;27.920;2022-07-10T03:20:11;100380.78;;;27.23;39.97
6942;BME280;3510;43.200;27.920;2022-07-10T03:22:38;100382.84;;;27.64;38.98
6942;BME280;3510;43.200;27.920;2022-07-10T03:25:05;100382.75;;;27.52;39.29
6942;BME280;3510;43.200;27.920;2022-07-10T03:27:33;100377.47;;;27.38;39.29
6942;BME280;3510;43.200;27.920;2022-07-10T03:30:00;100385.94;;;27.23;39.46
6942;BME280;3510;43.200;27.920;2022-07-10T03:32:26;100370.94;;;27.82;38.55
6942;BME280;3510;43.200;27.920;2022-07-10T03:34:53;100395.75;;;27.60;39.18
6942;BME280;3510;43.200;27.920;2022-07-10T03:37:22;100389.97;;;27.91;38.77
6942;BME280;3510;43.200;27.920;2022-07-10T03:39:49;100387.94;;;27.54;39.21
6942;BME280;3510;43.200;27.920;2022-07-10T03:42:16;100384.59;;;27.68;39.22
6942;BME280;3510;43.200;27.920;2022-07-10T03:44:43;100387.81;;;27.40;39.63
6942;BME280;3510;43.200;27.920;2022-07-10T03:47:10;100403.03;;;27.11;40.61
6942;BME280;3510;43.200;27.920;2022-07-10T03:49:38;100391.41;;;27.57;39.26
6942;BME280;3510;43.200;27.920;2022-07-10T03:52:07;100394.88;;;27.59;39.36
6942;BME280;3510;43.200;27.920;2022-07-10T03:54:36;100400.25;;;27.84;38.75
6942;BME280;3510;43.200;27.920;2022-07-10T03:57:04;100393.59;;;28.19;38.21
6942;BME280;3510;43.200;27.920;2022-07-10T03:59:48;100397.78;;;28.01;38.18
6942;BME280;3510;43.200;27.920;2022-07-10T04:02:15;100388.41;;;28.19;38.38
6942;BME280;3510;43.200;27.920;2022-07-10T04:04:42;100381.91;;;27.52;39.05
6942;BME280;3510;43.200;27.920;2022-07-10T04:07:09;100383.25;;;28.22;37.82
6942;BME280;3510;43.200;27.920;2022-07-10T04:09:39;100391.75;;;28.03;38.15
6942;BME280;3510;43.200;27.920;2022-07-10T04:12:07;100399.81;;;28.49;37.41
6942;BME280;3510;43.200;27.920;2022-07-10T04:14:33;100394.66;;;28.66;37.06
6942;BME280;3510;43.200;27.920;2022-07-10T04:17:01;100397.44;;;29.12;36.44
6942;BME280;3510;43.200;27.920;2022-07-10T04:19:27;100394.88;;;29.84;35.13
6942;BME280;3510;43.200;27.920;2022-07-10T04:21:54;100411.50;;;27.87;37.58
6942;BME280;3510;43.200;27.920;2022-07-10T04:24:21;100395.34;;;28.27;37.08
6942;BME280;3510;43.200;27.920;2022-07-10T04:26:49;100394.84;;;29.32;35.48
6942;BME280;3510;43.200;27.920;2022-07-10T04:29:16;100399.09;;;28.94;36.13
6942;BME280;3510;43.200;27.920;2022-07-10T04:31:43;100408.59;;;28.89;35.82
6942;BME280;3510;43.200;27.920;2022-07-10T04:34:10;100403.38;;;28.79;35.75
6942;BME280;3510;43.200;27.920;2022-07-10T04:36:37;100401.72;;;29.10;35.92
6942;BME280;3510;43.200;27.920;2022-07-10T04:39:04;100403.38;;;28.82;35.32
6942;BME280;3510;43.200;27.920;2022-07-10T04:41:31;100402.63;;;29.32;34.84
6942;BME280;3510;43.200;27.920;2022-07-10T04:43:59;100391.41;;;29.42;34.61
6942;BME280;3510;43.200;27.920;2022-07-10T04:46:26;100401.69;;;30.37;32.78
6942;BME280;3510;43.200;27.920;2022-07-10T04:48:53;100395.97;;;31.37;31.78
6942;BME280;3510;43.200;27.920;2022-07-10T04:51:20;100393.72;;;30.74;32.49
6942;BME280;3510;43.200;27.920;2022-07-10T04:53:48;100408.13;;;31.38;30.59
6942;BME280;3510;43.200;27.920;2022-07-10T04:56:15;100409.59;;;31.66;30.71
6942;BME280;3510;43.200;27.920;2022-07-10T04:58:42;100417.53;;;31.51;31.41
6942;BME280;3510;43.200;27.920;2022-07-10T05:01:09;100410.41;;;31.73;31.09
6942;BME280;3510;43.200;27.920;2022-07-10T05:03:36;100411.75;;;31.12;31.74
6942;BME280;3510;43.200;27.920;2022-07-10T05:06:03;100419.69;;;30.86;31.97
6942;BME280;3510;43.200;27.920;2022-07-10T05:08:30;100416.50;;;29.81;32.89
6942;BME280;3510;43.200;27.920;2022-07-10T05:10:57;100420.91;;;31.64;30.14
6942;BME280;3510;43.200;27.920;2022-07-10T05:13:23;100433.94;;;32.51;28.80
6942;BME280;3510;43.200;27.920;2022-07-10T05:15:50;100419.25;;;32.46;29.39
6942;BME280;3510;43.200;27.920;2022-07-10T05:18:18;100433.28;;;33.04;28.62
6942;BME280;3510;43.200;27.920;2022-07-10T05:20:44;100428.97;;;32.30;28.67
6942;BME280;3510;43.200;27.920;2022-07-10T05:23:13;100429.56;;;31.67;30.02
6942;BME280;3510;43.200;27.920;2022-07-10T05:25:39;100429.13;;;32.15;29.29
6942;BME280;3510;43.200;27.920;2022-07-10T05:28:06;100428.94;;;31.28;30.15
6942;BME280;3510;43.200;27.920;2022-07-10T05:30:33;100434.78;;;31.63;29.80
6942;BME280;3510;43.200;27.920;2022-07-10T05:32:59;100435.41;;;31.92;29.72
6942;BME280;3510;43.200;27.920;2022-07-10T05:35:28;100436.81;;;31.21;30.60
6942;BME280;3510;43.200;27.920;2022-07-10T05:37:54;100433.78;;;29.69;32.18
6942;BME280;3510;43.200;27.920;2022-07-10T05:40:21;100435.41;;;30.52;30.99
6942;BME280;3510;43.200;27.920;2022-07-10T05:42:48;100443.13;;;30.72;30.47
6942;BME280;3510;43.200;27.920;2022-07-10T05:45:16;100416.25;;;30.79;30.57
6942;BME280;3510;43.200;27.920;2022-07-10T05:47:43;100439.78;;;30.40;31.90
6942;BME280;3510;43.200;27.920;2022-07-10T05:50:11;100436.97;;;30.98;31.26
6942;BME280;3510;43.200;27.920;2022-07-10T05:52:39;100444.97;;;30.43;32.01
6942;BME280;3510;43.200;27.920;2022-07-10T05:55:06;100421.69;;;29.86;32.86
6942;BME280;3510;43.200;27.920;2022-07-10T05:57:34;100421.69;;;29.80;33.47
6942;BME280;3510;43.200;27.920;2022-07-10T06:00:03;100428.44;;;30.57;31.91
6942;BME280;3510;43.200;27.920;2022-07-10T06:02:30;100411.25;;;30.06;32.50
6942;BME280;3510;43.200;27.920;2022-07-10T06:04:57;100419.09;;;29.81;33.16
6942;BME280;3510;43.200;27.920;2022-07-10T06:07:25;100425.94;;;30.28;32.45
6942;BME280;3510;43.200;27.920;2022-07-10T06:09:53;100431.16;;;29.39;34.07
6942;BME280;3510;43.200;27.920;2022-07-10T06:12:20;100428.53;;;29.24;34.27
6942;BME280;3510;43.200;27.920;2022-07-10T06:14:47;100428.59;;;30.19;32.86
6942;BME280;3510;43.200;27.920;2022-07-10T06:17:14;100429.41;;;29.18;34.30
6942;BME280;3510;43.200;27.920;2022-07-10T06:19:40;100423.31;;;28.98;34.79
6942;BME280;3510;43.200;27.920;2022-07-10T06:22:07;100424.25;;;29.98;32.91
6942;BME280;3510;43.200;27.920;2022-07-10T06:24:53;100422.44;;;30.49;31.96
6942;BME280;3510;43.200;27.920;2022-07-10T06:27:20;100442.41;;;29.49;33.53
6942;BME280;3510;43.200;27.920;2022-07-10T06:29:47;100437.16;;;29.06;34.50
6942;BME280;3510;43.200;27.920;2022-07-10T06:32:14;100430.31;;;29.48;33.47
6942;BME280;3510;43.200;27.920;2022-07-10T06:34:42;100438.97;;;29.84;32.58
6942;BME280;3510;43.200;27.920;2022-07-10T06:37:08;100421.66;;;30.04;32.80
6942;BME280;3510;43.200;27.920;2022-07-10T06:39:35;100419.09;;;29.69;32.90
6942;BME280;3510;43.200;27.920;2022-07-10T06:42:05;100432.94;;;29.65;33.10
6942;BME280;3510;43.200;27.920;2022-07-10T06:44:32;100422.28;;;30.81;31.95
6942;BME280;3510;43.200;27.920;2022-07-10T06:46:59;100413.69;;;30.75;31.50
6942;BME280;3510;43.200;27.920;2022-07-10T06:49:43;100427.44;;;30.94;31.09
6942;BME280;3510;43.200;27.920;2022-07-10T06:52:11;100431.78;;;30.93;31.01
6942;BME280;3510;43.200;27.920;2022-07-10T06:54:38;100434.22;;;31.22;30.33
6942;BME280;3510;43.200;27.920;2022-07-10T06:57:06;100427.44;;;30.92;31.09
6942;BME280;3510;43.200;27.920;2022-07-10T06:59:33;100426.41;;;31.18;31.07
6942;BME280;3510;43.200;27.920;2022-07-10T07:01:59;100436.66;;;31.48;30.37
6942;BME280;3510;43.200;27.920;2022-07-10T07:04:26;100436.47;;;31.70;30.75
6942;BME280;3510;43.200;27.920;2022-07-10T07:06:53;100427.50;;;30.81;31.11
6942;BME280;3510;43.200;27.920;2022-07-10T07:09:20;100420.25;;;31.36;30.42
6942;BME280;3510;43.200;27.920;2022-07-10T07:11:46;100410.78;;;31.24;30.39
6942;BME280;3510;43.200;27.920;2022-07-10T07:14:14;100418.00;;;30.70;30.76
6942;BME280;3510;43.200;27.920;2022-07-10T07:16:41;100417.06;;;30.94;30.88
6942;BME280;3510;43.200;27.920;2022-07-10T07:19:10;100420.22;;;31.45;30.30
6942;BME280;3510;43.200;27.920;2022-07-10T07:21:42;100418.13;;;32.65;28.70
6942;BME280;3510;43.200;27.920;2022-07-10T07:24:26;100416.19;;;30.92;29.68
6942;BME280;3510;43.200;27.920;2022-07-10T07:26:53;100414.44;;;30.97;30.10
6942;BME280;3510;43.200;27.920;2022-07-10T07:29:21;100421.50;;;30.62;30.71
6942;BME280;3510;43.200;27.920;2022-07-10T07:31:48;100428.31;;;30.94;30.73
6942;BME280;3510;43.200;27.920;2022-07-10T07:34:14;100435.56;;;31.75;29.38
6942;BME280;3510;43.200;27.920;2022-07-10T07:36:41;100446.09;;;31.62;29.56
6942;BME280;3510;43.200;27.920;2022-07-10T07:39:08;100422.28;;;30.81;30.40
6942;BME280;3510;43.200;27.920;2022-07-10T07:41:34;100416.03;;;32.21;28.97
6942;BME280;3510;43.200;27.920;2022-07-10T07:44:01;100430.78;;;31.11;30.31
6942;BME280;3510;43.200;27.920;2022-07-10T07:46:29;100422.69;;;31.55;29.78
6942;BME280;3510;43.200;27.920;2022-07-10T07:48:55;100425.59;;;31.11;30.60
6942;BME280;3510;43.200;27.920;2022-07-10T07:51:22;100419.00;;;31.81;29.67
6942;BME280;3510;43.200;27.920;2022-07-10T07:53:49;100429.19;;;32.09;29.21
6942;BME280;3510;43.200;27.920;2022-07-10T07:56:15;100421.94;;;32.41;29.54
6942;BME280;3510;43.200;27.920;2022-07-10T07:58:42;100432.03;;;31.81;29.95
6942;BME280;3510;43.200;27.920;2022-07-10T08:01:09;100422.91;;;31.25;30.25
6942;BME280;3510;43.200;27.920;2022-07-10T08:03:37;100415.13;;;32.25;29.43
6942;BME280;3510;43.200;27.920;2022-07-10T08:06:04;100415.91;;;33.03;28.47
6942;BME280;3510;43.200;27.920;2022-07-10T08:08:30;100433.03;;;33.20;28.13
6942;BME280;3510;43.200;27.920;2022-07-10T08:10:57;100411.84;;;32.80;28.47
6942;BME280;3510;43.200;27.920;2022-07-10T08:13:23;100414.44;;;32.82;28.83
6942;BME280;3510;43.200;27.920;2022-07-10T08:15:50;100428.28;;;32.87;29.09
6942;BME280;3510;43.200;27.920;2022-07-10T08:18:17;100428.69;;;33.21;28.36
6942;BME280;3510;43.200;27.920;2022-07-10T08:20:45;100438.69;;;32.90;27.99
6942;BME280;3510;43.200;27.920;2022-07-10T08:23:12;100420.34;;;33.55;28.24
6942;BME280;3510;43.200;27.920;2022-07-10T08:25:38;100422.44;;;33.31;27.92
6942;BME280;3510;43.200;27.920;2022-07-10T08:28:05;100417.84;;;33.48;27.54
6942;BME280;3510;43.200;27.920;2022-07-10T08:30:32;100445.03;;;33.32;28.84
6942;BME280;3510;43.200;27.920;2022-07-10T08:32:58;100431.25;;;33.78;28.18
6942;BME280;3510;43.200;27.920;2022-07-10T08:35:25;100455.91;;;32.26;29.45
6942;BME280;3510;43.200;27.920;2022-07-10T08:37:53;100435.50;;;32.68;29.17
6942;BME280;3510;43.200;27.920;2022-07-10T08:40:21;100441.38;;;32.82;28.88
6942;BME280;3510;43.200;27.920;2022-07-10T08:42:48;100435.53;;;32.65;28.75
6942;BME280;3510;43.200;27.920;2022-07-10T08:45:14;100432.31;;;32.40;29.35
6942;BME280;3510;43.200;27.920;2022-07-10T08:47:41;100454.53;;;32.73;28.64
6942;BME280;3510;43.200;27.920;2022-07-10T08:50:14;100436.81;;;32.99;28.29
6942;BME280;3510;43.200;27.920;2022-07-10T08:52:42;100445.69;;;33.48;27.82
6942;BME280;3510;43.200;27.920;2022-07-10T08:55:12;100441.34;;;33.48;28.43
6942;BME280;3510;43.200;27.920;2022-07-10T08:57:39;100440.66;;;33.34;28.61
6942;BME280;3510;43.200;27.920;2022-07-10T09:00:07;100438.03;;;34.36;27.44
6942;BME280;3510;43.200;27.920;2022-07-10T09:02:34;100420.88;;;34.68;27.57
6942;BME280;3510;43.200;27.920;2022-07-10T09:05:01;100435.66;;;34.69;27.42
6942;BME280;3510;43.200;27.920;2022-07-10T09:07:34;100438.63;;;32.94;28.05
6942;BME280;3510;43.200;27.920;2022-07-10T09:10:04;100439.06;;;33.24;28.52
6942;BME280;3510;43.200;27.920;2022-07-10T09:12:48;100438.63;;;33.55;27.46
6942;BME280;3510;43.200;27.920;2022-07-10T09:15:15;100443.56;;;33.16;28.11
6942;BME280;3510;43.200;27.920;2022-07-10T09:17:48;100422.50;;;33.81;28.20
6942;BME280;3510;43.200;27.920;2022-07-10T09:20:23;100432.41;;;34.13;27.36
6942;BME280;3510;43.200;27.920;2022-07-10T09:22:50;100426.47;;;33.52;28.31
6942;BME280;3510;43.200;27.920;2022-07-10T09:25:17;100423.97;;;33.44;28.60
6942;BME280;3510;43.200;27.920;2022-07-10T09:27:53;100428.72;;;34.23;27.15
6942;BME280;3510;43.200;27.920;2022-07-10T09:30:33;100415.41;;;34.35;27.14
6942;BME280;3510;43.200;27.920;2022-07-10T09:38:48;100403.13;;;34.39;27.47
6942;BME280;3510;43.200;27.920;2022-07-10T09:41:15;100408.31;;;34.40;26.69
6942;BME280;3510;43.200;27.920;2022-07-10T09:43:44;100398.06;;;34.73;26.87
6942;BME280;3510;43.200;27.920;2022-07-10T09:46:11;100394.25;;;33.55;27.25
6942;BME280;3510;43.200;27.920;2022-07-10T09:48:37;100403.25;;;34.33;26.00
6942;BME280;3510;43.200;27.920;2022-07-10T09:51:04;100398.00;;;33.89;26.77
6942;BME280;3510;43.200;27.920;2022-07-10T09:53:34;100418.50;;;34.11;26.37
6942;BME280;3510;43.200;27.920;2022-07-10T09:56:03;100389.94;;;35.24;25.10
6942;BME280;3510;43.200;27.920;2022-07-10T09:58:33;100407.69;;;34.29;25.58
6942;BME280;3510;43.200;27.920;2022-07-10T10:01:04;100400.25;;;33.03;27.80
6942;BME280;3510;43.200;27.920;2022-07-10T10:03:33;100393.59;;;33.91;26.42
6942;BME280;3510;43.200;27.920;2022-07-10T10:06:11;100381.63;;;34.68;25.62
6942;BME280;3510;43.200;27.920;2022-07-10T10:08:59;100378.09;;;33.81;26.96
6942;BME280;3510;43.200;27.920;2022-07-10T10:11:31;100383.69;;;34.92;25.07
6942;BME280;3510;43.200;27.920;2022-07-10T10:14:00;100395.16;;;34.87;24.58
6942;BME280;3510;43.200;27.920;2022-07-10T10:16:29;100382.41;;;35.12;24.19
6942;BME280;3510;43.200;27.920;2022-07-10T10:18:57;100373.47;;;35.21;24.46
6942;BME280;3510;43.200;27.920;2022-07-10T10:21:42;100380.16;;;34.56;24.50
6942;BME280;3510;43.200;27.920;2022-07-10T10:24:11;100391.53;;;34.54;24.49
6942;BME280;3510;43.200;27.920;2022-07-10T10:26:39;100372.59;;;34.41;24.46
6942;BME280;3510;43.200;27.920;2022-07-10T10:29:06;100386.91;;;34.23;24.57
6942;BME280;3510;43.200;27.920;2022-07-10T10:31:36;100396.47;;;35.06;23.56
6942;BME280;3510;43.200;27.920;2022-07-10T10:34:03;100393.31;;;34.52;23.92
6942;BME280;3510;43.200;27.920;2022-07-10T10:36:46;100400.84;;;35.06;23.32
6942;BME280;3510;43.200;27.920;2022-07-10T10:39:15;100379.91;;;34.25;23.53
6942;BME280;3510;43.200;27.920;2022-07-10T10:41:50;100384.25;;;35.07;23.65
6942;BME280;3510;43.200;27.920;2022-07-10T10:44:22;100403.47;;;35.06;23.61
6942;BME280;3510;43.200;27.920;2022-07-10T10:47:01;100391.28;;;35.05;23.52
6942;BME280;3510;43.200;27.920;2022-07-10T10:49:50;100380.09;;;34.97;24.41
6942;BME280;3510;43.200;27.920;2022-07-10T10:52:17;100377.75;;;34.46;24.54
6942;BME280;3510;43.200;27.920;2022-07-10T10:55:05;100402.69;;;34.62;24.20
6942;BME280;3510;43.200;27.920;2022-07-10T10:57:43;100384.19;;;35.10;23.76
6942;BME280;3510;43.200;27.920;2022-07-10T11:00:30;100380.19;;;34.94;24.49
6942;BME280;3510;43.200;27.920;2022-07-10T11:05:54;100380.13;;;34.95;24.56
6942;BME280;3510;43.200;27.920;2022-07-10T11:08:37;100404.97;;;34.35;24.35
6942;BME280;3510;43.200;27.920;2022-07-10T11:13:45;100373.00;;;35.73;23.04
6942;BME280;3510;43.200;27.920;2022-07-10T11:16:12;100375.34;;;35.84;22.52
6942;BME280;3510;43.200;27.920;2022-07-10T11:18:39;100381.22;;;34.44;23.39
6942;BME280;3510;43.200;27.920;2022-07-10T11:21:07;100396.59;;;35.37;22.81
6942;BME280;3510;43.200;27.920;2022-07-10T11:23:45;100369.22;;;35.51;22.91
6942;BME280;3510;43.200;27.920;2022-07-10T11:26:18;100375.66;;;36.35;21.51
6942;BME280;3510;43.200;27.920;2022-07-10T11:28:51;100382.00;;;35.96;21.82
6942;BME280;3510;43.200;27.920;2022-07-10T11:31:19;100375.06;;;35.62;21.72
6942;BME280;3510;43.200;27.920;2022-07-10T11:33:48;100389.06;;;36.25;21.14
6942;BME280;3510;43.200;27.920;2022-07-10T11:36:19;100369.88;;;36.82;21.08
6942;BME280;3510;43.200;27.920;2022-07-10T11:38:47;100379.53;;;36.22;21.51
6942;BME280;3510;43.200;27.920;2022-07-10T11:41:15;100363.00;;;35.56;21.91
6942;BME280;3510;43.200;27.920;2022-07-10T11:43:49;100380.66;;;36.14;21.07
6942;BME280;3510;43.200;27.920;2022-07-10T11:46:17;100369.34;;;36.11;20.89
6942;BME280;3510;43.200;27.920;2022-07-10T11:48:44;100389.53;;;36.08;21.74
6942;BME280;3510;43.200;27.920;2022-07-10T11:51:28;100379.13;;;36.06;21.41
6942;BME280;3510;43.200;27.920;2022-07-10T11:53:57;100363.72;;;35.94;21.91
6942;BME280;3510;43.200;27.920;2022-07-10T11:56:25;100379.22;;;37.47;20.58
6942;BME280;3510;43.200;27.920;2022-07-10T11:58:56;100373.09;;;37.20;20.28
6942;BME280;3510;43.200;27.920;2022-07-10T12:01:23;100366.75;;;38.49;19.16
6942;BME280;3510;43.200;27.920;2022-07-10T12:03:54;100382.09;;;38.38;17.88
6942;BME280;3510;43.200;27.920;2022-07-10T12:06:23;100363.94;;;38.99;18.04
6942;BME280;3510;43.200;27.920;2022-07-10T12:08:52;100389.25;;;38.58;18.86
6942;BME280;3510;43.200;27.920;2022-07-10T12:11:20;100381.88;;;38.20;18.39
6942;BME280;3510;43.200;27.920;2022-07-10T12:13:49;100383.34;;;38.04;18.72
6942;BME280;3510;43.200;27.920;2022-07-10T12:16:16;100373.16;;;38.65;18.52
6942;BME280;3510;43.200;27.920;2022-07-10T12:18:44;100373.53;;;40.04;17.88
6942;BME280;3510;43.200;27.920;2022-07-10T12:21:13;100371.09;;;38.26;18.81
6942;BME280;3510;43.200;27.920;2022-07-10T12:23:43;100380.56;;;36.48;19.68
6942;BME280;3510;43.200;27.920;2022-07-10T12:26:12;100356.94;;;36.18;21.05
6942;BME280;3510;43.200;27.920;2022-07-10T12:28:53;100359.53;;;37.32;20.12
6942;BME280;3510;43.200;27.920;2022-07-10T12:31:22;100361.88;;;36.87;20.35
6942;BME280;3510;43.200;27.920;2022-07-10T12:33:54;100377.28;;;37.77;19.97
6942;BME280;3510;43.200;27.920;2022-07-10T12:36:24;100371.94;;;40.00;17.93
6942;BME280;3510;43.200;27.920;2022-07-10T12:38:55;100374.22;;;40.28;18.06
6942;BME280;3510;43.200;27.920;2022-07-10T12:41:25;100357.16;;;39.56;18.17
6942;BME280;3510;43.200;27.920;2022-07-10T12:43:53;100347.63;;;38.22;19.38
6942;BME280;3510;43.200;27.920;2022-07-10T12:46:22;100345.13;;;38.86;17.98
6942;BME280;3510;43.200;27.920;2022-07-10T12:49:05;100340.03;;;37.91;18.91
6942;BME280;3510;43.200;27.920;2022-07-10T12:51:34;100349.88;;;37.84;19.18
6942;BME280;3510;43.200;27.920;2022-07-10T12:54:08;100361.97;;;37.65;19.83
6942;BME280;3510;43.200;27.920;2022-07-10T12:56:37;100365.75;;;38.06;19.51
6942;BME280;3510;43.200;27.920;2022-07-10T12:59:12;100361.44;;;38.04;19.69
6942;BME280;3510;43.200;27.920;2022-07-10T13:01:42;100365.94;;;38.01;19.59
6942;BME280;3510;43.200;27.920;2022-07-10T13:04:10;100363.84;;;38.79;18.43
6942;BME280;3510;43.200;27.920;2022-07-10T13:06:38;100373.81;;;38.48;19.64
6942;BME280;3510;43.200;27.920;2022-07-10T13:09:27;100368.16;;;38.12;19.28
6942;BME280;3510;43.200;27.920;2022-07-10T13:11:56;100338.41;;;38.57;18.59
6942;BME280;3510;43.200;27.920;2022-07-10T13:14:23;100379.88;;;38.27;18.42
6942;BME280;3510;43.200;27.920;2022-07-10T13:16:50;100356.00;;;37.06;19.13
6942;BME280;3510;43.200;27.920;2022-07-10T13:19:17;100347.47;;;37.00;19.71